Time;durP1;ratioP1;P1;durP2;ratioP2;P2;SDS_P1;SDS_P2;PMS_P1;PMS_P2;Temp;Humidity;BMP_temperature;BMP_pressure;BME280_temperature;BME280_humidity;BME280_pressure;Samples;Min_cycle;Max_cycle;Signal;HPM_P1;HPM_P2
2022/03/15 00:00:24;;;;;;;12.32;3.75;;;;;;;7.67;100.00;102875.28;5067887;28;20108;-70
2022/03/15 00:02:50;;;;;;;10.57;4.00;;;;;;;7.63;100.00;102862.81;5049696;28;20472;-68
2022/03/15 00:05:16;;;;;;;7.70;3.50;;;;;;;7.55;99.83;102859.69;5060166;28;20079;-69
2022/03/15 00:07:42;;;;;;;10.77;3.78;;;;;;;7.48;100.00;102859.25;5063034;28;20115;-69
2022/03/15 00:10:08;;;;;;;9.90;3.80;;;;;;;7.46;100.00;102863.47;5061539;28;20076;-69
2022/03/15 00:12:34;;;;;;;11.05;4.25;;;;;;;7.40;100.00;102853.53;5059945;28;20115;-70
2022/03/15 00:15:00;;;;;;;14.02;3.92;;;;;;;7.30;100.00;102865.16;5055045;28;20116;-70
2022/03/15 00:17:26;;;;;;;15.63;3.63;;;;;;;7.24;100.00;102862.13;5066124;28;20035;-70
2022/03/15 00:19:52;;;;;;;9.57;3.42;;;;;;;7.19;100.00;102858.31;5064358;28;20025;-70
2022/03/15 00:22:17;;;;;;;9.07;3.67;;;;;;;7.16;100.00;102852.91;5057551;28;20498;-70
2022/03/15 00:24:43;;;;;;;8.82;3.47;;;;;;;7.11;100.00;102856.94;5062541;28;20056;-67
2022/03/15 00:27:10;;;;;;;10.25;3.90;;;;;;;7.08;100.00;102850.72;5048157;28;20062;-67
2022/03/15 00:29:35;;;;;;;6.95;3.40;;;;;;;7.11;100.00;102854.31;5065063;28;20070;-69
2022/03/15 00:32:01;;;;;;;17.92;3.92;;;;;;;7.04;100.00;102848.72;5071330;28;20032;-69
2022/03/15 00:34:26;;;;;;;9.02;3.92;;;;;;;7.02;100.00;102847.69;5066648;28;20028;-69
2022/03/15 00:36:51;;;;;;;7.88;3.20;;;;;;;6.99;100.00;102852.75;5060277;28;20028;-69
2022/03/15 00:39:17;;;;;;;10.20;3.60;;;;;;;6.99;100.00;102852.75;5063572;28;20314;-69
2022/03/15 00:41:42;;;;;;;8.95;3.03;;;;;;;7.03;100.00;102849.50;5057088;28;20024;-69
2022/03/15 00:44:08;;;;;;;13.45;3.38;;;;;;;6.95;100.00;102837.66;5072109;28;20060;-69
2022/03/15 00:46:33;;;;;;;9.38;3.90;;;;;;;6.95;100.00;102840.28;5058097;28;20044;-69
2022/03/15 00:48:59;;;;;;;9.60;3.67;;;;;;;6.95;100.00;102835.03;5059471;28;20021;-69
2022/03/15 00:51:24;;;;;;;13.02;3.92;;;;;;;6.87;100.00;102831.91;5068593;28;20035;-69
2022/03/15 00:53:50;;;;;;;11.30;4.20;;;;;;;6.93;100.00;102834.00;5044459;28;20056;-68
2022/03/15 00:56:15;;;;;;;8.38;3.78;;;;;;;6.81;100.00;102828.00;5066255;28;20028;-69
2022/03/15 00:58:40;;;;;;;12.15;4.30;;;;;;;6.79;100.00;102830.53;5046773;28;20062;-68
2022/03/15 01:01:06;;;;;;;7.68;3.90;;;;;;;6.76;100.00;102835.56;5056495;28;20111;-68
2022/03/15 01:03:31;;;;;;;5.82;2.75;;;;;;;6.77;100.00;102840.00;5063819;28;20476;-69
2022/03/15 01:05:58;;;;;;;11.52;4.07;;;;;;;6.79;100.00;102834.88;5062148;28;20035;-69
2022/03/15 01:08:23;;;;;;;11.65;3.90;;;;;;;6.78;100.00;102840.91;5054816;28;20029;-69
2022/03/15 01:10:49;;;;;;;9.13;3.67;;;;;;;6.75;100.00;102833.75;5064942;28;20042;-69
2022/03/15 01:13:15;;;;;;;9.43;3.58;;;;;;;6.72;100.00;102825.72;5063490;28;20024;-69
2022/03/15 01:15:43;;;;;;;9.90;3.78;;;;;;;6.73;100.00;102831.03;5058446;28;20032;-69
2022/03/15 01:18:09;;;;;;;14.18;4.00;;;;;;;6.79;100.00;102832.25;5063438;28;20112;-68
2022/03/15 01:20:38;;;;;;;7.70;3.67;;;;;;;6.70;100.00;102820.38;5058488;28;20120;-69
2022/03/15 01:23:03;;;;;;;9.95;3.88;;;;;;;6.65;100.00;102821.78;5040677;28;20044;-69
2022/03/15 01:25:30;;;;;;;12.43;4.13;;;;;;;6.70;100.00;102819.47;5056258;28;20045;-69
2022/03/15 01:27:56;;;;;;;14.65;4.68;;;;;;;6.75;100.00;102808.50;5069463;28;20467;-69
2022/03/15 01:30:21;;;;;;;11.60;4.90;;;;;;;6.68;100.00;102813.25;5058121;28;20056;-69
2022/03/15 01:32:46;;;;;;;14.77;6.00;;;;;;;6.61;100.00;102811.94;5067703;28;20427;-69
2022/03/15 01:35:12;;;;;;;8.93;4.50;;;;;;;6.62;100.00;102798.06;5062329;28;20059;-68
2022/03/15 01:37:37;;;;;;;10.50;4.65;;;;;;;6.57;100.00;102796.84;5068424;28;20035;-69
2022/03/15 01:40:03;;;;;;;12.40;5.65;;;;;;;6.57;100.00;102796.84;5059816;28;20469;-68
2022/03/15 01:42:28;;;;;;;11.68;4.72;;;;;;;6.57;100.00;102794.25;5060203;28;20113;-69
2022/03/15 01:44:54;;;;;;;10.40;5.45;;;;;;;6.55;100.00;102799.38;5069598;28;20431;-69
2022/03/15 01:47:19;;;;;;;11.80;5.63;;;;;;;6.55;100.00;102795.84;5068615;28;20460;-70
2022/03/15 01:49:45;;;;;;;10.60;5.30;;;;;;;6.52;100.00;102793.03;5027103;28;20025;-69
2022/03/15 01:52:13;;;;;;;13.38;5.20;;;;;;;6.51;100.00;102792.13;5056654;28;20035;-68
2022/03/15 01:54:40;;;;;;;11.07;5.22;;;;;;;6.50;100.00;102789.44;5066440;28;20103;-68
2022/03/15 01:57:07;;;;;;;15.43;5.57;;;;;;;6.49;100.00;102793.75;5060779;28;20033;-68
2022/03/15 01:59:33;;;;;;;11.07;4.95;;;;;;;6.58;100.00;102794.34;5057926;28;20037;-68
2022/03/15 02:01:59;;;;;;;13.82;5.90;;;;;;;6.55;100.00;102788.91;5067087;28;20480;-68
2022/03/15 02:04:24;;;;;;;8.52;5.38;;;;;;;6.53;100.00;102787.91;5040075;28;20035;-68
2022/03/15 02:07:01;;;;;;;12.25;5.80;;;;;;;6.55;100.00;102788.00;5068729;28;20038;-68
2022/03/15 02:09:26;;;;;;;9.52;5.57;;;;;;;6.62;100.00;102790.22;5055324;28;20478;-68
2022/03/15 02:11:51;;;;;;;16.05;7.47;;;;;;;6.67;100.00;102785.28;5069180;28;20029;-68
2022/03/15 02:14:17;;;;;;;10.73;5.93;;;;;;;6.64;100.00;102775.50;5058201;28;20032;-68
2022/03/15 02:16:42;;;;;;;14.13;5.78;;;;;;;6.66;100.00;102775.59;5065227;28;20529;-68
2022/03/15 02:19:07;;;;;;;32.53;8.18;;;;;;;6.63;100.00;102776.31;5058595;28;20491;-69
2022/03/15 02:21:36;;;;;;;14.63;6.13;;;;;;;6.68;100.00;102774.00;5059667;28;20461;-69
2022/03/15 02:24:02;;;;;;;12.95;6.20;;;;;;;6.63;100.00;102759.72;5065327;28;20036;-68
2022/03/15 02:26:28;;;;;;;15.68;6.78;;;;;;;6.67;100.00;102767.84;5054541;28;20380;-69
2022/03/15 02:28:54;;;;;;;12.10;6.22;;;;;;;6.74;100.00;102770.06;5071496;28;20112;-69
2022/03/15 02:31:20;;;;;;;13.25;6.88;;;;;;;6.75;100.00;102766.66;5055478;28;20381;-69
2022/03/15 02:33:45;;;;;;;11.52;6.05;;;;;;;6.75;100.00;102758.81;5063226;28;20035;-69
2022/03/15 02:36:11;;;;;;;13.80;6.70;;;;;;;6.78;100.00;102765.03;5059034;28;20028;-69
2022/03/15 02:38:36;;;;;;;12.05;6.43;;;;;;;6.72;100.00;102761.19;5057815;28;20032;-69
2022/03/15 02:41:01;;;;;;;13.68;5.90;;;;;;;6.73;100.00;102757.78;5058719;28;20539;-69
2022/03/15 02:43:27;;;;;;;19.10;6.60;;;;;;;6.77;100.00;102748.44;5058664;28;20377;-69
2022/03/15 02:45:52;;;;;;;16.40;6.30;;;;;;;6.70;100.00;102747.13;5047976;28;20067;-70
2022/03/15 02:48:17;;;;;;;16.20;6.45;;;;;;;6.64;100.00;102745.84;5061110;28;20037;-70
2022/03/15 02:50:43;;;;;;;14.90;6.25;;;;;;;6.57;100.00;102739.31;5054800;28;20123;-70
2022/03/15 02:53:08;;;;;;;14.75;6.80;;;;;;;6.53;100.00;102742.53;5062540;28;20041;-70
2022/03/15 02:55:34;;;;;;;15.45;6.45;;;;;;;6.51;100.00;102739.84;5060713;28;20016;-70
2022/03/15 02:58:00;;;;;;;12.23;7.20;;;;;;;6.49;100.00;102741.44;5037317;28;20494;-70
2022/03/15 03:00:30;;;;;;;13.07;6.97;;;;;;;6.49;100.00;102740.53;5062530;28;20058;-70
2022/03/15 03:02:55;;;;;;;15.65;7.28;;;;;;;6.45;100.00;102739.44;5064092;28;20016;-70
2022/03/15 03:05:21;;;;;;;14.52;7.32;;;;;;;6.45;100.00;102741.16;5065961;28;20040;-69
2022/03/15 03:07:47;;;;;;;20.17;7.00;;;;;;;6.45;100.00;102744.66;5055917;28;20068;-70
2022/03/15 03:10:14;;;;;;;17.65;8.35;;;;;;;6.54;100.00;102750.47;5056065;28;20060;-70
2022/03/15 03:12:41;;;;;;;22.27;7.82;;;;;;;6.46;100.00;102741.25;5052703;28;20472;-70
2022/03/15 03:15:13;;;;;;;20.98;7.78;;;;;;;6.48;100.00;102746.56;5044478;28;20033;-70
2022/03/15 03:17:40;;;;;;;13.50;7.47;;;;;;;6.48;100.00;102741.34;5061834;28;20040;-70
2022/03/15 03:20:08;;;;;;;14.32;7.18;;;;;;;6.47;100.00;102736.91;5053023;28;20040;-70
2022/03/15 03:22:34;;;;;;;18.85;8.15;;;;;;;6.50;100.00;102738.03;5060770;28;20499;-70
2022/03/15 03:24:59;;;;;;;23.67;10.23;;;;;;;6.52;100.00;102736.38;5060784;28;20033;-69
2022/03/15 03:27:25;;;;;;;23.52;9.30;;;;;;;6.53;100.00;102737.31;5067843;28;20454;-70
2022/03/15 03:29:50;;;;;;;19.80;9.95;;;;;;;6.56;100.00;102737.50;5056428;28;20033;-70
2022/03/15 03:32:16;;;;;;;20.33;9.70;;;;;;;6.56;100.00;102742.72;5057095;28;20032;-70
2022/03/15 03:34:42;;;;;;;27.30;11.48;;;;;;;6.60;100.00;102739.50;5046519;28;20032;-70
2022/03/15 03:37:07;;;;;;;21.88;10.25;;;;;;;6.61;100.00;102740.44;5046517;28;20108;-70
2022/03/15 03:39:32;;;;;;;25.85;11.25;;;;;;;6.65;100.00;102734.59;5055510;28;20031;-70
2022/03/15 03:41:58;;;;;;;27.63;12.18;;;;;;;6.66;100.00;102726.81;5052706;28;20032;-69
2022/03/15 03:44:24;;;;;;;20.45;11.88;;;;;;;6.67;100.00;102718.13;5057499;28;20029;-70
2022/03/15 03:46:50;;;;;;;25.45;11.73;;;;;;;6.70;100.00;102723.59;5060125;28;20035;-69
2022/03/15 03:49:15;;;;;;;23.50;11.65;;;;;;;6.73;100.00;102726.38;5057465;28;20464;-69
2022/03/15 03:51:41;;;;;;;30.83;12.52;;;;;;;6.75;100.00;102724.78;5062675;28;20032;-68
2022/03/15 03:54:06;;;;;;;20.73;11.95;;;;;;;6.75;100.00;102722.16;5058771;28;20047;-69
2022/03/15 03:56:33;;;;;;;26.23;11.68;;;;;;;6.77;100.00;102713.50;5052693;28;20032;-69
2022/03/15 03:58:59;;;;;;;25.67;12.27;;;;;;;6.78;100.00;102720.53;5060064;28;21179;-68
2022/03/15 04:01:24;;;;;;;20.67;12.40;;;;;;;6.78;100.00;102717.91;5059386;28;20412;-70
2022/03/15 04:03:49;;;;;;;28.60;13.13;;;;;;;6.79;100.00;102724.97;5061863;28;20033;-70
2022/03/15 04:06:15;;;;;;;23.90;12.23;;;;;;;6.84;100.00;102728.78;5061040;28;20040;-70
2022/03/15 04:08:42;;;;;;;20.85;13.05;;;;;;;6.84;100.00;102726.16;5052632;28;20029;-70
2022/03/15 04:11:08;;;;;;;22.92;12.77;;;;;;;6.82;100.00;102717.31;5064875;28;20028;-70
2022/03/15 04:13:35;;;;;;;31.70;14.10;;;;;;;6.81;100.00;102723.34;5053189;28;20082;-70
2022/03/15 04:16:00;;;;;;;24.42;13.13;;;;;;;6.82;100.00;102710.34;5048036;28;20494;-70
2022/03/15 04:18:25;;;;;;;27.38;13.20;;;;;;;6.79;100.00;102720.63;5069569;28;20111;-69
2022/03/15 04:20:51;;;;;;;22.27;12.30;;;;;;;6.80;100.00;102721.56;5058874;28;20025;-69
2022/03/15 04:23:16;;;;;;;22.63;12.63;;;;;;;6.81;100.00;102715.50;5044942;28;20067;-70
2022/03/15 04:25:42;;;;;;;25.10;12.57;;;;;;;6.80;100.00;102709.38;5067162;28;20365;-70
2022/03/15 04:28:08;;;;;;;30.17;13.32;;;;;;;6.74;100.00;102709.88;5061932;28;20029;-68
2022/03/15 04:30:33;;;;;;;24.33;12.32;;;;;;;6.74;100.00;102703.72;5063442;28;20021;-68
2022/03/15 04:33:01;;;;;;;27.05;13.15;;;;;;;6.73;100.00;102712.41;5063408;28;20036;-68
2022/03/15 04:35:28;;;;;;;22.88;13.88;;;;;;;6.71;100.00;102712.28;5066536;28;20488;-69
2022/03/15 04:37:54;;;;;;;32.78;15.07;;;;;;;6.69;100.00;102713.94;5068999;28;20150;-68
2022/03/15 04:40:23;;;;;;;31.10;14.00;;;;;;;6.70;100.00;102714.81;5069422;28;20100;-69
2022/03/15 04:42:48;;;;;;;24.08;13.23;;;;;;;6.70;100.00;102712.19;5049204;28;20021;-69
2022/03/15 04:45:15;;;;;;;22.50;13.35;;;;;;;6.79;100.00;102712.78;5062303;28;20021;-69
2022/03/15 04:47:40;;;;;;;24.63;14.35;;;;;;;6.78;100.00;102712.69;5052751;28;20020;-68
2022/03/15 04:50:07;;;;;;;31.40;13.82;;;;;;;6.70;100.00;102715.75;5071577;28;20028;-69
2022/03/15 04:52:34;;;;;;;31.30;14.77;;;;;;;6.68;100.00;102706.88;5071250;28;20480;-69
2022/03/15 04:55:00;;;;;;;33.38;15.48;;;;;;;6.65;100.00;102705.81;5049533;28;20041;-69
2022/03/15 04:57:25;;;;;;;33.03;14.20;;;;;;;6.62;100.00;102700.34;5072065;28;20046;-69
2022/03/15 04:59:51;;;;;;;32.00;14.43;;;;;;;6.61;100.00;102691.63;5056174;28;20066;-69
2022/03/15 05:02:16;;;;;;;30.80;14.27;;;;;;;6.57;100.00;102692.22;5059322;28;20119;-69
2022/03/15 05:04:41;;;;;;;25.38;13.48;;;;;;;6.56;100.00;102686.06;5045518;28;20029;-69
2022/03/15 05:07:06;;;;;;;31.30;14.98;;;;;;;6.59;100.00;102690.59;5063259;28;20025;-69
2022/03/15 05:09:32;;;;;;;23.80;13.10;;;;;;;6.53;100.00;102680.66;5064821;28;20024;-68
2022/03/15 05:11:58;;;;;;;23.58;13.38;;;;;;;6.54;100.00;102686.81;5067207;28;20116;-68
2022/03/15 05:14:24;;;;;;;29.52;15.13;;;;;;;6.56;100.00;102678.22;5070210;28;20052;-68
2022/03/15 05:16:49;;;;;;;26.38;14.40;;;;;;;6.56;100.00;102677.34;5064366;28;20501;-68
2022/03/15 05:19:14;;;;;;;23.55;14.85;;;;;;;6.54;100.00;102673.75;5057688;28;20031;-68
2022/03/15 05:21:40;;;;;;;36.45;16.08;;;;;;;6.60;100.00;102671.50;5057429;28;20522;-69
2022/03/15 05:24:05;;;;;;;29.15;16.02;;;;;;;6.64;100.00;102664.75;5055362;28;20033;-69
2022/03/15 05:26:30;;;;;;;28.98;15.93;;;;;;;6.68;100.00;102670.25;5056090;28;20036;-68
2022/03/15 05:28:56;;;;;;;31.63;15.43;;;;;;;6.69;100.00;102671.19;5056238;28;20021;-68
2022/03/15 05:31:23;;;;;;;31.52;16.05;;;;;;;6.65;100.00;102670.06;5064472;28;20036;-69
2022/03/15 05:33:48;;;;;;;27.58;16.45;;;;;;;6.67;100.00;102667.53;5056210;28;20033;-69
2022/03/15 05:36:14;;;;;;;32.80;15.48;;;;;;;6.62;100.00;102664.66;5056190;28;20033;-69
2022/03/15 05:38:41;;;;;;;35.22;17.63;;;;;;;6.64;100.00;102665.63;5059590;28;20028;-69
2022/03/15 05:41:07;;;;;;;35.25;19.02;;;;;;;6.60;100.00;102668.88;5067038;28;20039;-69
2022/03/15 05:43:33;;;;;;;41.30;16.77;;;;;;;6.58;100.00;102665.28;5062192;28;20025;-69
2022/03/15 05:45:58;;;;;;;31.70;17.63;;;;;;;6.55;100.00;102654.59;5059739;28;20491;-68
2022/03/15 05:48:23;;;;;;;35.60;18.27;;;;;;;6.56;100.00;102661.66;5061862;28;20074;-69
2022/03/15 05:50:49;;;;;;;33.88;17.90;;;;;;;6.55;100.00;102662.44;5059753;28;20059;-69
2022/03/15 05:53:15;;;;;;;37.22;18.85;;;;;;;6.55;100.00;102665.06;5070016;28;20124;-69
2022/03/15 05:55:40;;;;;;;34.17;18.95;;;;;;;6.60;100.00;102661.03;5069224;28;20021;-70
2022/03/15 05:58:06;;;;;;;28.23;16.80;;;;;;;6.57;100.00;102646.03;5072380;28;20039;-69
2022/03/15 06:00:34;;;;;;;36.10;19.17;;;;;;;6.62;100.00;102642.81;5061563;28;22219;-68
2022/03/15 06:03:00;;;;;;;33.33;16.83;;;;;;;6.60;100.00;102634.88;5060493;28;20039;-69
2022/03/15 06:05:25;;;;;;;40.00;18.05;;;;;;;6.55;100.00;102632.00;5058835;28;20409;-68
2022/03/15 06:07:52;;;;;;;39.00;18.02;;;;;;;6.53;100.00;102632.69;5056687;28;20039;-68
2022/03/15 06:10:23;;;;;;;33.67;17.90;;;;;;;6.54;100.00;102639.75;5060723;28;20032;-69
2022/03/15 06:12:49;;;;;;;45.35;18.23;;;;;;;6.50;100.00;102640.34;5065744;28;20074;-69
2022/03/15 06:15:14;;;;;;;35.95;18.20;;;;;;;6.51;100.00;102639.53;5063566;28;20067;-70
2022/03/15 06:17:51;;;;;;;34.13;17.98;;;;;;;6.45;100.00;102640.06;5060433;28;20450;-69
2022/03/15 06:20:18;;;;;;;38.15;21.08;;;;;;;6.45;100.00;102641.78;5059908;28;20028;-70
2022/03/15 06:22:44;;;;;;;34.38;18.52;;;;;;;6.40;100.00;102644.09;5056127;28;20044;-69
2022/03/15 06:25:09;;;;;;;36.13;19.77;;;;;;;6.39;100.00;102643.19;5060328;28;20505;-69
2022/03/15 06:27:36;;;;;;;43.20;19.40;;;;;;;6.39;100.00;102637.06;5044568;28;20116;-70
2022/03/15 06:30:04;;;;;;;38.63;18.92;;;;;;;6.48;100.00;102634.13;5059762;28;20064;-69
2022/03/15 06:32:30;;;;;;;33.03;20.50;;;;;;;6.51;100.00;102647.38;5075969;28;20025;-69
2022/03/15 06:34:55;;;;;;;40.33;19.83;;;;;;;6.54;100.00;102638.03;5061461;28;20384;-71
2022/03/15 06:37:21;;;;;;;44.72;20.23;;;;;;;6.56;100.00;102638.09;5047889;28;20025;-72
2022/03/15 06:39:46;;;;;;;34.47;19.38;;;;;;;6.56;100.00;102638.09;5062296;28;20020;-71
2022/03/15 06:42:11;;;;;;;36.83;20.38;;;;;;;6.62;100.00;102638.50;5054595;28;20020;-72
2022/03/15 06:44:42;;;;;;;37.78;19.23;;;;;;;6.58;100.00;102633.88;5054724;28;20059;-71
2022/03/15 06:47:08;;;;;;;41.72;20.73;;;;;;;6.60;100.00;102628.75;5062428;28;20146;-73
2022/03/15 06:49:33;;;;;;;44.55;20.88;;;;;;;6.65;100.00;102629.94;5064417;28;20709;-71
2022/03/15 06:51:58;;;;;;;42.85;20.42;;;;;;;6.62;100.00;102628.03;5068482;28;20039;-71
2022/03/15 06:54:25;;;;;;;42.00;20.08;;;;;;;6.61;100.00;102630.56;5052646;28;20048;-72
2022/03/15 06:56:51;;;;;;;39.60;19.70;;;;;;;6.67;100.00;102625.69;5065105;28;20171;-70
2022/03/15 06:59:16;;;;;;;39.55;20.17;;;;;;;6.70;100.00;102623.25;5066710;28;20127;-70
2022/03/15 07:01:41;;;;;;;36.42;20.25;;;;;;;6.73;100.00;102626.97;5063153;28;20081;-71
2022/03/15 07:04:07;;;;;;;38.00;19.10;;;;;;;6.74;100.00;102626.16;5053167;28;20040;-70
2022/03/15 07:06:32;;;;;;;36.80;20.52;;;;;;;6.77;100.00;102621.91;5051904;28;20040;-72
2022/03/15 07:08:58;;;;;;;38.53;19.52;;;;;;;6.78;100.00;102618.50;5059170;28;20384;-70
2022/03/15 07:11:23;;;;;;;39.97;20.83;;;;;;;6.84;100.00;102627.63;5070786;28;20054;-70
2022/03/15 07:13:48;;;;;;;42.92;19.92;;;;;;;6.84;100.00;102626.72;5056349;28;20025;-70
2022/03/15 07:16:15;;;;;;;60.80;21.85;;;;;;;6.89;100.00;102620.97;5035559;28;20080;-70
2022/03/15 07:18:41;;;;;;;37.40;20.17;;;;;;;6.92;100.00;102621.13;5054116;28;20138;-70
2022/03/15 07:21:06;;;;;;;54.15;20.65;;;;;;;6.96;100.00;102623.94;5065577;28;20051;-71
2022/03/15 07:23:31;;;;;;;37.67;20.13;;;;;;;6.98;100.00;102617.09;5049807;28;20032;-70
2022/03/15 07:25:56;;;;;;;36.90;19.10;;;;;;;7.03;100.00;102610.41;5061769;28;20035;-71
2022/03/15 07:28:22;;;;;;;40.83;19.40;;;;;;;7.02;100.00;102614.72;5055102;28;20085;-71
2022/03/15 07:30:47;;;;;;;44.75;21.25;;;;;;;7.13;100.00;102614.47;5064665;28;20060;-71
2022/03/15 07:33:12;;;;;;;42.05;20.58;;;;;;;7.17;100.00;102613.84;5071125;28;20020;-69
2022/03/15 07:35:38;;;;;;;40.33;20.23;;;;;;;7.19;100.00;102609.59;5035425;28;20051;-69
2022/03/15 07:38:03;;;;;;;38.35;19.33;;;;;;;7.24;100.00;102608.16;5065098;28;20029;-69
2022/03/15 07:40:29;;;;;;;38.83;18.80;;;;;;;7.28;100.00;102612.75;5058360;28;20029;-71
2022/03/15 07:42:54;;;;;;;35.65;18.73;;;;;;;7.29;100.00;102619.81;5040289;28;20059;-70
2022/03/15 07:45:20;;;;;;;42.83;20.13;;;;;;;7.34;100.00;102623.59;5059322;28;20021;-69
2022/03/15 07:47:47;;;;;;;37.08;18.25;;;;;;;7.37;100.00;102613.28;5052204;28;20441;-70
2022/03/15 07:50:13;;;;;;;33.47;19.52;;;;;;;7.43;100.00;102621.53;5035312;28;20488;-70
2022/03/15 07:52:39;;;;;;;44.35;19.48;;;;;;;7.48;100.00;102620.88;5066263;28;20032;-70
2022/03/15 07:55:05;;;;;;;36.67;18.33;;;;;;;7.51;100.00;102610.56;5062159;28;20124;-68
2022/03/15 07:57:30;;;;;;;38.63;19.33;;;;;;;7.57;100.00;102610.94;5062220;28;20526;-69
2022/03/15 07:59:55;;;;;;;34.65;18.05;;;;;;;7.69;100.00;102606.41;5054280;28;20021;-70
2022/03/15 08:02:21;;;;;;;39.53;18.85;;;;;;;7.71;100.00;102606.47;5066112;28;20032;-70
2022/03/15 08:04:47;;;;;;;34.85;17.00;;;;;;;7.76;100.00;102595.44;5073737;28;20415;-69
2022/03/15 08:07:13;;;;;;;35.03;18.38;;;;;;;7.82;100.00;102596.59;5056060;28;20057;-69
2022/03/15 08:09:38;;;;;;;32.88;19.00;;;;;;;7.80;100.00;102600.84;5058434;28;20367;-70
2022/03/15 08:12:04;;;;;;;33.45;18.98;;;;;;;7.88;100.00;102596.94;5067585;28;20108;-71
2022/03/15 08:14:30;;;;;;;33.78;18.95;;;;;;;7.88;100.00;102599.56;5056107;28;20060;-70
2022/03/15 08:16:55;;;;;;;27.70;17.33;;;;;;;7.94;100.00;102603.41;5061435;28;20105;-71
2022/03/15 08:19:20;;;;;;;36.30;16.73;;;;;;;8.02;100.00;102610.84;5071821;28;20029;-71
2022/03/15 08:21:46;;;;;;;34.40;17.48;;;;;;;8.04;100.00;102615.31;5052859;28;20028;-70
2022/03/15 08:24:11;;;;;;;32.72;17.73;;;;;;;8.03;100.00;102616.16;5066901;28;20028;-70
2022/03/15 08:26:38;;;;;;;33.80;17.17;;;;;;;8.06;100.00;102612.81;5069655;28;20477;-70
2022/03/15 08:29:05;;;;;;;28.48;17.85;;;;;;;8.04;100.00;102620.56;5046087;28;20027;-70
2022/03/15 08:31:30;;;;;;;35.10;18.40;;;;;;;8.08;100.00;102614.69;5059693;28;20460;-71
2022/03/15 08:33:56;;;;;;;32.50;18.00;;;;;;;8.15;100.00;102612.41;5062300;28;20039;-71
2022/03/15 08:36:21;;;;;;;32.13;18.27;;;;;;;8.24;100.00;102607.66;5062230;28;20082;-71
2022/03/15 08:38:47;;;;;;;37.42;18.10;;;;;;;8.35;100.00;102618.72;5066222;28;20055;-72
2022/03/15 08:41:12;;;;;;;31.13;17.30;;;;;;;8.41;100.00;102616.44;5056401;28;20052;-71
2022/03/15 08:43:38;;;;;;;34.03;18.40;;;;;;;8.47;100.00;102616.81;5064547;28;20445;-71
2022/03/15 08:46:04;;;;;;;36.45;18.52;;;;;;;8.56;100.00;102605.88;5064136;28;20045;-69
2022/03/15 08:48:29;;;;;;;28.75;17.40;;;;;;;8.67;100.00;102610.00;5056475;28;20099;-71
2022/03/15 08:50:55;;;;;;;30.70;17.27;;;;;;;8.70;100.00;102606.63;5055688;28;20079;-71
2022/03/15 08:53:20;;;;;;;31.55;17.60;;;;;;;8.76;100.00;102600.00;5060610;28;20044;-71
2022/03/15 08:55:46;;;;;;;30.55;17.00;;;;;;;8.71;100.00;102593.59;5065563;28;20066;-71
2022/03/15 08:58:11;;;;;;;29.52;17.00;;;;;;;8.81;100.00;102594.09;5050631;28;20070;-71
2022/03/15 09:00:37;;;;;;;30.92;18.00;;;;;;;8.72;100.00;102595.41;5067502;28;20046;-71
2022/03/15 09:03:02;;;;;;;31.20;17.63;;;;;;;8.57;100.00;102595.50;5074115;28;20501;-71
2022/03/15 09:05:28;;;;;;;35.85;17.65;;;;;;;8.65;100.00;102593.25;5070976;28;20392;-71
2022/03/15 09:07:54;;;;;;;33.28;19.00;;;;;;;8.63;100.00;102594.91;5059309;28;20028;-71
2022/03/15 09:10:20;;;;;;;33.67;18.38;;;;;;;8.65;100.00;102593.25;5058962;28;20464;-71
2022/03/15 09:12:46;;;;;;;32.88;19.10;;;;;;;8.91;100.00;102594.63;5060254;28;20029;-70
2022/03/15 09:15:12;;;;;;;34.38;17.77;;;;;;;9.01;100.00;102598.63;5070415;28;20031;-70
2022/03/15 09:17:37;;;;;;;33.35;16.83;;;;;;;9.25;100.00;102590.19;5057314;28;20024;-70
2022/03/15 09:20:04;;;;;;;142.32;25.85;;;;;;;9.57;100.00;102593.50;5058672;28;20032;-71
2022/03/15 09:22:29;;;;;;;37.28;17.95;;;;;;;9.76;98.13;102596.19;5050341;28;20107;-71
2022/03/15 09:24:55;;;;;;;83.82;17.98;;;;;;;9.92;96.02;102591.69;5056652;28;20047;-71
2022/03/15 09:27:20;;;;;;;82.85;21.33;;;;;;;9.97;94.41;102582.28;5068236;28;20036;-72
2022/03/15 09:29:45;;;;;;;65.75;18.33;;;;;;;9.97;93.69;102577.03;5056592;28;20086;-71
2022/03/15 09:32:11;;;;;;;39.22;16.55;;;;;;;10.01;93.83;102583.31;5061510;28;20032;-71
2022/03/15 09:34:37;;;;;;;54.55;15.98;;;;;;;10.13;92.11;102579.53;5061705;28;20104;-71
2022/03/15 09:37:04;;;;;;;38.28;13.23;;;;;;;10.09;91.55;102572.34;5052339;28;20056;-71
2022/03/15 09:39:30;;;;;;;28.60;12.00;;;;;;;10.09;90.19;102569.72;5045868;28;20087;-71
2022/03/15 09:41:59;;;;;;;40.30;13.55;;;;;;;10.12;88.32;102564.59;5058010;28;20063;-71
2022/03/15 09:44:27;;;;;;;24.98;12.27;;;;;;;10.12;88.96;102569.84;5038683;28;20070;-71
2022/03/15 09:46:55;;;;;;;53.67;12.93;;;;;;;10.13;88.31;102565.47;5063865;28;20032;-71
2022/03/15 09:49:22;;;;;;;41.17;13.98;;;;;;;10.13;88.34;102561.13;5045296;28;20036;-71
2022/03/15 09:51:48;;;;;;;26.67;12.57;;;;;;;10.21;88.30;102555.31;5055057;28;20028;-70
2022/03/15 09:54:14;;;;;;;23.98;13.15;;;;;;;10.41;88.94;102551.00;5057568;28;20053;-71
2022/03/15 09:56:41;;;;;;;24.05;13.73;;;;;;;10.80;89.24;102540.41;5058145;28;20067;-70
2022/03/15 09:59:15;;;;;;;22.00;12.98;;;;;;;11.13;88.03;102546.19;5059544;28;20076;-71
2022/03/15 10:01:42;;;;;;;22.35;12.88;;;;;;;11.27;86.39;102537.97;5056712;28;20365;-71
2022/03/15 10:04:08;;;;;;;29.45;12.65;;;;;;;11.51;86.44;102532.78;5073186;28;20096;-71
2022/03/15 10:06:34;;;;;;;21.10;11.52;;;;;;;11.73;84.00;102529.25;5053277;28;20107;-71
2022/03/15 10:08:59;;;;;;;65.38;14.13;;;;;;;11.95;82.73;102530.09;5061255;28;20064;-71
2022/03/15 10:11:25;;;;;;;39.30;11.27;;;;;;;12.20;80.44;102515.22;5043165;28;20485;-71
2022/03/15 10:13:51;;;;;;;34.38;11.30;;;;;;;12.36;80.76;102522.84;5073062;28;20086;-71
2022/03/15 10:16:17;;;;;;;65.93;12.88;;;;;;;12.62;80.73;102514.97;5055634;28;20133;-71
2022/03/15 10:18:53;;;;;;;37.17;11.43;;;;;;;12.89;79.09;102515.00;5053791;28;20033;-70
2022/03/15 10:21:21;;;;;;;49.90;11.30;;;;;;;13.24;73.82;102495.84;5064822;28;20158;-70
2022/03/15 10:23:46;;;;;;;23.25;10.18;;;;;;;13.33;72.12;102504.09;5061650;28;20029;-71
2022/03/15 10:26:23;;;;;;;60.38;12.43;;;;;;;13.44;73.19;102499.19;5059926;28;20033;-70
2022/03/15 10:28:49;;;;;;;25.73;10.07;;;;;;;13.65;72.09;102501.59;5061210;28;20040;-71
2022/03/15 10:31:16;;;;;;;200.70;19.52;;;;;;;13.70;71.05;102494.72;5060217;28;20083;-71
2022/03/15 10:33:42;;;;;;;107.72;18.63;;;;;;;13.82;70.24;102492.44;5070482;28;20024;-70
2022/03/15 10:36:17;;;;;;;39.92;10.18;;;;;;;13.78;69.37;102484.34;5063834;28;20079;-71
2022/03/15 10:38:50;;;;;;;24.50;10.10;;;;;;;13.94;70.81;102480.41;5060070;28;20036;-71
2022/03/15 10:41:16;;;;;;;20.92;9.40;;;;;;;14.00;72.51;102491.19;5053893;28;20028;-71
2022/03/15 10:43:42;;;;;;;29.80;9.82;;;;;;;14.32;69.96;102483.22;5053657;28;20032;-71
2022/03/15 10:46:12;;;;;;;21.80;8.85;;;;;;;14.43;68.69;102479.13;5053565;28;20028;-71
2022/03/15 10:48:38;;;;;;;54.65;11.15;;;;;;;14.75;67.71;102478.22;5053586;28;20036;-71
2022/03/15 10:51:13;;;;;;;19.88;7.20;;;;;;;14.75;66.36;102481.75;5053512;28;20120;-70
2022/03/15 10:53:47;;;;;;;76.68;11.07;;;;;;;14.91;66.27;102484.81;5070533;28;20040;-70
2022/03/15 10:56:21;;;;;;;45.42;9.85;;;;;;;15.18;65.89;102469.56;5060460;28;20033;-70
2022/03/15 10:59:00;;;;;;;40.13;9.45;;;;;;;15.43;65.08;102463.94;5040350;28;20023;-71
2022/03/15 11:01:27;;;;;;;42.40;10.30;;;;;;;15.45;67.16;102460.44;5055926;28;20037;-71
2022/03/15 11:04:03;;;;;;;139.43;12.80;;;;;;;15.66;66.19;102462.66;5061695;28;20048;-71
2022/03/15 11:06:37;;;;;;;17.58;8.18;;;;;;;15.80;64.30;102448.81;5056055;28;20028;-71